Terminal Aerodrome Forecast
Issued by NWS Lake Charles, LA

Current Version | Previous Version | Text Only | Print | Product List | Glossary On
Versions: 1 2 3 4 5 6 7 8 9 10 11 12 13
000
FTUS44 KLCH 010500
TAFLFT
TAF
KLFT 010525Z 0106/0206 10006KT P6SM SCT050 OVC080
      TEMPO 0108/0112 4SM BR OVC025
     FM011200 12006KT 4SM BR VCSH OVC015
      TEMPO 0112/0116 1SM BR OVC008
     FM011600 15010KT 4SM BR VCSH OVC025 PROB30 0118/0124 1SM +SHRA
      BKN008 OVC025=

USA.gov is the U.S. government's official web portal to all federal, state and local government web resources and services.